createdAt,value
2018-11-22T00:01:52.840Z,91.66
2018-11-22T00:04:24.384Z,91.72
2018-11-22T00:06:55.991Z,91.76
2018-11-22T00:09:27.437Z,91.80
2018-11-22T00:11:58.141Z,91.81
2018-11-22T00:14:28.852Z,91.79
2018-11-22T00:17:00.605Z,91.77
2018-11-22T00:19:31.482Z,91.90
2018-11-22T00:22:02.182Z,91.99
2018-11-22T00:24:32.844Z,92.16
2018-11-22T00:27:03.489Z,92.12
2018-11-22T00:29:34.101Z,92.15
2018-11-22T00:32:06.219Z,92.25
2018-11-22T00:34:36.846Z,92.35
2018-11-22T00:37:07.976Z,92.25
2018-11-22T00:39:38.566Z,92.36
2018-11-22T00:42:09.539Z,92.44
2018-11-22T00:44:41.066Z,92.55
2018-11-22T00:47:13.060Z,92.57
2018-11-22T00:49:44.429Z,92.59
2018-11-22T00:52:15.919Z,92.41
2018-11-22T00:54:46.989Z,92.59
2018-11-22T00:57:18.076Z,92.66
2018-11-22T00:59:50.143Z,92.70
2018-11-22T01:02:21.257Z,92.80
2018-11-22T01:04:51.868Z,92.70
2018-11-22T01:07:22.628Z,92.91
2018-11-22T01:09:53.209Z,92.83
2018-11-22T01:12:24.565Z,92.86
2018-11-22T01:14:55.193Z,92.88
2018-11-22T01:17:25.789Z,92.92
2018-11-22T01:19:56.375Z,93.00
2018-11-22T01:22:27.832Z,93.08
2018-11-22T01:24:58.984Z,92.96
2018-11-22T01:27:29.664Z,92.84
2018-11-22T01:30:00.440Z,92.90
2018-11-22T01:32:31.137Z,92.72
2018-11-22T01:35:01.734Z,92.78
2018-11-22T01:37:32.379Z,92.75
2018-11-22T01:40:02.976Z,92.76
2018-11-22T01:42:33.849Z,92.88
2018-11-22T01:45:04.502Z,92.87
2018-11-22T01:47:35.417Z,92.67
2018-11-22T01:50:10.182Z,92.63
2018-11-22T01:52:41.274Z,92.41
2018-11-22T01:55:13.540Z,92.36
2018-11-22T01:57:44.554Z,92.39
2018-11-22T02:00:27.805Z,92.33
2018-11-22T02:03:00.255Z,92.29
2018-11-22T02:05:30.838Z,92.32
2018-11-22T02:08:01.411Z,92.24
2018-11-22T02:10:31.996Z,92.16
2018-11-22T02:13:02.637Z,91.98
2018-11-22T02:15:33.323Z,91.94
2018-11-22T02:18:04.087Z,91.92
2018-11-22T02:20:34.679Z,91.76
2018-11-22T02:23:05.746Z,91.70
2018-11-22T02:25:39.124Z,91.73
2018-11-22T02:28:09.833Z,91.71
2018-11-22T02:30:40.407Z,91.73
2018-11-22T02:33:13.336Z,91.74
2018-11-22T02:35:43.955Z,91.71
2018-11-22T02:38:14.605Z,91.67
2018-11-22T02:40:45.233Z,91.62
2018-11-22T02:43:16.054Z,91.75
2018-11-22T02:45:46.729Z,91.91
2018-11-22T02:48:17.548Z,91.99
2018-11-22T02:50:48.311Z,91.97
2018-11-22T02:53:19.017Z,91.93
2018-11-22T02:55:49.642Z,91.93
2018-11-22T02:58:20.397Z,92.10
2018-11-22T03:00:51.061Z,92.02
2018-11-22T03:03:22.202Z,92.06
2018-11-22T03:05:52.742Z,92.13
2018-11-22T03:08:23.424Z,92.09
2018-11-22T03:10:54.326Z,92.01
2018-11-22T03:13:25.006Z,92.18
2018-11-22T03:15:55.569Z,92.16
2018-11-22T03:18:26.309Z,92.10
2018-11-22T03:20:58.813Z,92.10
2018-11-22T03:23:29.819Z,92.07
2018-11-22T03:26:00.647Z,91.89
2018-11-22T03:28:31.292Z,91.89
2018-11-22T03:31:01.950Z,91.88
2018-11-22T03:33:33.003Z,91.97
2018-11-22T03:36:03.581Z,91.95
2018-11-22T03:38:34.502Z,92.02
2018-11-22T03:41:05.122Z,91.91
2018-11-22T03:43:36.103Z,91.69
2018-11-22T03:46:06.909Z,91.74
2018-11-22T03:48:37.586Z,91.64
2018-11-22T03:51:08.208Z,91.54
2018-11-22T03:53:38.920Z,91.57
2018-11-22T03:56:09.598Z,91.58
2018-11-22T03:58:40.253Z,91.53
2018-11-22T04:01:10.832Z,91.43
2018-11-22T04:03:42.144Z,91.49
2018-11-22T04:06:12.715Z,91.47
2018-11-22T04:08:43.340Z,91.35
2018-11-22T04:11:13.974Z,91.29
2018-11-22T04:13:44.752Z,91.23
2018-11-22T04:16:15.486Z,91.37
2018-11-22T04:18:46.885Z,91.27
2018-11-22T04:21:17.468Z,91.48
2018-11-22T04:23:48.179Z,91.28
2018-11-22T04:26:24.015Z,91.35
2018-11-22T04:28:51.311Z,91.34
2018-11-22T04:31:21.867Z,91.31
2018-11-22T04:33:53.394Z,91.39
2018-11-22T04:36:23.977Z,91.30
2018-11-22T04:38:54.765Z,91.45
2018-11-22T04:41:25.323Z,91.28
2018-11-22T04:43:56.195Z,91.30
2018-11-22T04:46:26.998Z,91.23
2018-11-22T04:48:57.798Z,91.44
2018-11-22T04:51:28.621Z,91.18
2018-11-22T04:54:00.241Z,91.09
2018-11-22T04:56:30.850Z,91.19
2018-11-22T04:59:01.551Z,91.28
2018-11-22T05:01:32.835Z,91.20
2018-11-22T05:04:04.010Z,91.14
2018-11-22T05:06:36.754Z,91.21
2018-11-22T05:09:11.091Z,91.16
2018-11-22T05:11:41.673Z,91.21
2018-11-22T05:14:12.749Z,91.08
2018-11-22T05:16:43.502Z,90.92
2018-11-22T05:19:14.312Z,90.93
2018-11-22T05:21:45.081Z,91.01
2018-11-22T05:24:15.708Z,91.00
2018-11-22T05:26:46.622Z,91.09
2018-11-22T05:29:17.363Z,91.15
2018-11-22T05:31:47.991Z,91.18
2018-11-22T05:34:18.954Z,91.03
2018-11-22T05:37:03.412Z,91.06
2018-11-22T05:39:41.943Z,90.83
2018-11-22T05:42:16.422Z,90.83
2018-11-22T05:44:47.568Z,90.82
2018-11-22T05:47:18.916Z,90.80
2018-11-22T05:49:49.556Z,90.78
2018-11-22T05:52:20.188Z,90.63
2018-11-22T05:54:50.985Z,90.41
2018-11-22T05:57:21.636Z,90.47
2018-11-22T05:59:52.541Z,90.58
2018-11-22T06:02:25.534Z,90.25
2018-11-22T06:04:57.063Z,90.41
2018-11-22T06:07:27.644Z,90.30
2018-11-22T06:09:59.448Z,90.17
2018-11-22T06:12:30.039Z,90.23
2018-11-22T06:15:01.651Z,90.11
2018-11-22T06:17:32.389Z,90.13
2018-11-22T06:20:03.213Z,90.26
2018-11-22T06:22:35.997Z,90.21
2018-11-22T06:25:08.246Z,90.10
2018-11-22T06:27:39.239Z,90.13
2018-11-22T06:30:23.854Z,90.01
2018-11-22T06:32:56.565Z,90.01
2018-11-22T06:35:27.745Z,89.99
2018-11-22T06:37:59.678Z,90.12
2018-11-22T06:43:27.970Z,89.80
2018-11-22T06:45:59.308Z,89.91
2018-11-22T06:48:30.970Z,89.74
2018-11-22T06:51:06.294Z,89.84
2018-11-22T06:53:37.233Z,89.58
2018-11-22T06:56:08.113Z,89.59
2018-11-22T06:58:38.766Z,89.57
2018-11-22T07:01:12.064Z,89.50
2018-11-22T07:03:43.001Z,89.50
2018-11-22T07:06:14.063Z,89.59
2018-11-22T07:08:45.761Z,89.50
2018-11-22T07:11:19.708Z,89.63
2018-11-22T07:13:50.365Z,89.38
2018-11-22T07:16:21.139Z,89.49
2018-11-22T07:18:51.750Z,89.43
2018-11-22T07:21:22.332Z,89.43
2018-11-22T07:23:52.940Z,89.36
2018-11-22T07:26:23.778Z,89.21
2018-11-22T07:28:54.660Z,89.22
2018-11-22T07:31:25.384Z,89.27
2018-11-22T07:33:56.727Z,89.13
2018-11-22T07:36:27.268Z,89.21
2018-11-22T07:39:07.225Z,89.13
2018-11-22T07:41:40.002Z,88.92
2018-11-22T07:44:10.567Z,89.08
2018-11-22T07:46:41.125Z,88.76
2018-11-22T07:49:11.863Z,88.72
2018-11-22T07:51:42.965Z,88.58
2018-11-22T07:54:15.719Z,88.31
2018-11-22T07:56:46.302Z,88.51
2018-11-22T07:59:16.914Z,88.62
2018-11-22T08:01:47.596Z,88.63
2018-11-22T08:04:18.154Z,88.40
2018-11-22T08:06:48.869Z,88.36
2018-11-22T08:09:19.613Z,88.32
2018-11-22T08:11:50.326Z,88.52
2018-11-22T08:14:20.829Z,88.49
2018-11-22T08:16:51.413Z,88.41
2018-11-22T08:19:22.014Z,88.31
2018-11-22T08:21:52.629Z,88.33
2018-11-22T08:24:24.108Z,88.36
2018-11-22T08:26:54.739Z,88.38
2018-11-22T08:29:25.587Z,88.45
2018-11-22T08:31:56.248Z,88.54
2018-11-22T08:34:26.798Z,88.53
2018-11-22T08:36:57.388Z,88.46
2018-11-22T08:39:28.136Z,88.40
2018-11-22T08:41:59.877Z,88.16
2018-11-22T08:44:30.508Z,88.17
2018-11-22T08:47:01.172Z,88.44
2018-11-22T08:49:31.800Z,88.49
2018-11-22T08:52:02.435Z,88.39
2018-11-22T08:54:32.984Z,88.68
2018-11-22T08:57:03.538Z,88.76
2018-11-22T08:59:34.501Z,88.77
2018-11-22T09:02:05.234Z,88.76
2018-11-22T09:04:35.882Z,88.70
2018-11-22T09:07:07.838Z,88.79
2018-11-22T09:10:02.456Z,88.73
2018-11-22T09:13:22.629Z,88.75
2018-11-22T09:15:57.156Z,88.79
2018-11-22T09:18:27.758Z,88.72
2018-11-22T09:21:05.348Z,88.73
2018-11-22T09:23:38.570Z,88.74
2018-11-22T09:26:07.779Z,88.47
2018-11-22T09:28:38.396Z,88.60
2018-11-22T09:31:09.082Z,88.65
2018-11-22T09:34:00.353Z,88.63
2018-11-22T09:37:02.142Z,88.59
2018-11-22T09:39:37.189Z,88.54
2018-11-22T09:42:07.794Z,88.61
2018-11-22T09:44:39.321Z,88.54
2018-11-22T09:47:09.894Z,88.60
2018-11-22T09:49:43.840Z,88.59
2018-11-22T09:52:21.803Z,88.64
2018-11-22T09:55:02.663Z,88.80
2018-11-22T09:57:33.560Z,88.77
2018-11-22T10:00:16.277Z,88.94
2018-11-22T10:02:53.325Z,88.88
2018-11-22T10:05:50.658Z,88.95
2018-11-22T10:08:36.038Z,88.73
2018-11-22T10:14:02.874Z,88.93
2018-11-22T10:16:34.684Z,88.62
2018-11-22T10:19:05.234Z,88.55
2018-11-22T10:21:35.903Z,88.49
2018-11-22T10:24:07.556Z,88.76
2018-11-22T10:26:38.103Z,88.83
2018-11-22T10:29:08.857Z,88.96
2018-11-22T12:16:00.614Z,88.51
2018-11-22T12:18:36.647Z,88.12
2018-11-22T12:20:59.992Z,88.70
2018-11-22T12:23:29.435Z,88.69
2018-11-22T12:25:58.804Z,88.58
2018-11-22T12:28:28.210Z,88.49
2018-11-22T12:31:06.093Z,89.07
2018-11-22T12:33:44.491Z,89.07
2018-11-22T12:36:19.198Z,89.35
2018-11-22T12:38:49.535Z,89.47
2018-11-22T12:41:19.177Z,88.80
2018-11-22T12:43:48.901Z,89.21
2018-11-22T12:46:18.342Z,89.73
2018-11-22T12:48:47.665Z,88.98
2018-11-22T12:51:18.019Z,88.91
2018-11-22T12:53:47.525Z,89.14
2018-11-22T12:56:17.790Z,89.28
2018-11-22T12:58:47.182Z,88.67
2018-11-22T13:01:16.525Z,88.47
2018-11-22T13:03:46.225Z,88.91
2018-11-22T13:06:15.826Z,89.19
2018-11-22T13:08:45.154Z,88.98
2018-11-22T13:11:14.561Z,89.09
2018-11-22T13:13:44.027Z,89.14
2018-11-22T13:16:13.737Z,89.81
2018-11-22T13:18:43.113Z,89.23
2018-11-22T13:21:12.888Z,89.69
2018-11-22T13:23:47.371Z,89.34
2018-11-22T13:26:18.055Z,89.14
2018-11-22T13:28:47.587Z,88.75
2018-11-22T13:31:17.512Z,89.33
2018-11-22T13:33:46.780Z,89.24
2018-11-22T13:36:16.195Z,89.45
2018-11-22T13:38:46.047Z,88.88
2018-11-22T13:41:25.663Z,89.01
2018-11-22T13:43:55.643Z,88.75
2018-11-22T13:46:28.898Z,89.05
2018-11-22T13:48:58.302Z,88.94
2018-11-22T13:51:28.784Z,89.29
2018-11-22T13:54:02.245Z,89.00
2018-11-22T13:56:33.526Z,88.68
2018-11-22T13:59:03.005Z,88.88
2018-11-22T14:01:34.367Z,88.64
2018-11-22T14:04:04.826Z,89.26
2018-11-22T14:06:34.611Z,89.10
2018-11-22T14:09:08.416Z,89.47
2018-11-22T14:11:39.899Z,89.19
2018-11-22T14:14:14.874Z,89.06
2018-11-22T14:16:53.215Z,88.56
2018-11-22T14:19:27.401Z,88.78
2018-11-22T14:21:56.778Z,88.78
2018-11-22T14:24:30.630Z,88.99
2018-11-22T14:27:01.296Z,88.67
2018-11-22T14:29:32.865Z,89.58
2018-11-22T14:32:03.074Z,88.78
2018-11-22T14:34:36.934Z,88.78
2018-11-22T14:37:06.387Z,89.53
2018-11-22T14:39:36.150Z,88.91
2018-11-22T14:42:06.776Z,88.19
2018-11-22T14:44:36.512Z,88.33
2018-11-22T14:47:07.190Z,88.49
2018-11-22T14:49:36.556Z,88.15
2018-11-22T14:52:06.848Z,88.92
2018-11-22T14:54:36.129Z,88.36
2018-11-22T14:57:05.558Z,88.61
2018-11-22T14:59:38.041Z,88.74
2018-11-22T15:02:08.476Z,88.92
2018-11-22T15:04:37.840Z,88.42
2018-11-22T15:07:07.129Z,89.07
2018-11-22T15:09:37.061Z,88.88
2018-11-22T15:12:06.920Z,89.06
2018-11-22T15:14:36.421Z,89.04
2018-11-22T15:17:06.222Z,89.13
2018-11-22T15:19:35.846Z,88.30
2018-11-22T15:22:05.606Z,89.04
2018-11-22T15:24:35.476Z,89.11
2018-11-22T15:27:04.934Z,88.93
2018-11-22T15:29:34.999Z,88.81
2018-11-22T15:32:05.167Z,88.79
2018-11-22T15:34:34.946Z,88.88
2018-11-22T15:37:05.515Z,88.99
2018-11-22T15:39:35.073Z,88.62
2018-11-22T15:42:05.188Z,89.39
2018-11-22T15:44:34.656Z,89.53
2018-11-22T15:47:04.046Z,89.81
2018-11-22T15:49:33.732Z,90.07
2018-11-22T15:52:03.338Z,89.84
2018-11-22T15:54:32.905Z,89.76
2018-11-22T15:57:03.230Z,89.60
2018-11-22T15:59:32.857Z,89.59
2018-11-22T16:02:03.908Z,89.61
2018-11-22T16:04:33.269Z,89.35
2018-11-22T16:07:02.832Z,89.08
2018-11-22T16:09:32.392Z,89.34
2018-11-22T16:12:01.704Z,89.67
2018-11-22T16:14:35.513Z,90.39
2018-11-22T16:17:07.098Z,88.92
2018-11-22T16:19:37.701Z,89.09
2018-11-22T16:22:07.139Z,89.29
2018-11-22T16:24:37.192Z,88.76
2018-11-22T16:27:07.072Z,89.24
2018-11-22T16:29:37.318Z,89.32
2018-11-22T16:32:07.895Z,89.61
2018-11-22T16:34:37.679Z,89.75
2018-11-22T16:37:08.490Z,89.73
2018-11-22T16:39:39.306Z,89.32
2018-11-22T16:42:08.776Z,88.72
2018-11-22T16:44:38.143Z,89.25
2018-11-22T16:47:08.822Z,89.14
2018-11-22T16:49:38.167Z,89.45
2018-11-22T16:52:07.449Z,89.46
2018-11-22T16:54:37.032Z,88.82
2018-11-22T16:57:21.492Z,88.93
2018-11-22T16:59:51.670Z,88.82
2018-11-22T17:02:23.812Z,89.16
2018-11-22T17:04:53.161Z,89.17
2018-11-22T17:07:22.625Z,89.23
2018-11-22T17:09:53.539Z,89.54
2018-11-22T17:12:22.950Z,89.19
2018-11-22T17:14:52.884Z,89.13
2018-11-22T17:17:23.647Z,89.19
2018-11-22T17:19:54.651Z,89.37
2018-11-22T17:22:28.071Z,89.57
2018-11-22T17:24:57.580Z,89.13
2018-11-22T17:27:29.089Z,89.06
2018-11-22T17:30:11.227Z,89.02
2018-11-22T17:32:35.276Z,89.87
2018-11-22T17:35:05.539Z,89.35
2018-11-22T17:37:35.215Z,90.11
2018-11-22T17:40:09.573Z,89.71
2018-11-22T17:42:39.160Z,89.64
2018-11-22T17:45:11.062Z,89.35
2018-11-22T17:47:40.517Z,89.26
2018-11-22T17:50:13.473Z,89.45
2018-11-22T17:52:45.194Z,89.61
2018-11-22T17:55:19.613Z,89.47
2018-11-22T17:57:49.375Z,88.97
2018-11-22T18:00:27.714Z,89.32
2018-11-22T18:02:58.411Z,89.22
2018-11-22T18:05:28.666Z,89.23
2018-11-22T18:07:59.124Z,89.06
2018-11-22T18:10:30.458Z,89.33
2018-11-22T18:13:00.677Z,90.09
2018-11-22T18:15:31.806Z,89.26
2018-11-22T18:18:01.541Z,89.47
2018-11-22T18:20:31.767Z,90.24
2018-11-22T18:23:02.144Z,89.68
2018-11-22T18:25:33.233Z,90.14
2018-11-22T18:28:04.084Z,90.07
2018-11-22T18:30:35.183Z,90.16
2018-11-22T18:33:06.130Z,89.76
2018-11-22T18:35:36.286Z,89.92
2018-11-22T18:38:06.023Z,89.70
2018-11-22T18:40:37.999Z,89.46
2018-11-22T18:43:08.292Z,90.19
2018-11-22T18:45:39.096Z,90.03
2018-11-22T18:48:10.053Z,89.51
2018-11-22T18:50:41.588Z,89.48
2018-11-22T18:53:11.442Z,90.01
2018-11-22T18:55:40.702Z,89.54
2018-11-22T18:58:10.321Z,89.93
2018-11-22T19:00:42.076Z,89.69
2018-11-22T19:03:13.346Z,89.43
2018-11-22T19:05:42.615Z,90.66
2018-11-22T19:08:12.006Z,89.65
2018-11-22T19:10:42.718Z,89.98
2018-11-22T19:13:12.742Z,90.43
2018-11-22T19:15:44.617Z,90.26
2018-11-22T19:18:14.728Z,90.57
2018-11-22T19:20:44.728Z,90.18
2018-11-22T19:23:15.115Z,90.20
2018-11-22T19:25:44.456Z,90.64
2018-11-22T19:28:13.771Z,90.24
2018-11-22T19:30:44.619Z,90.06
2018-11-22T19:33:15.763Z,90.88
2018-11-22T19:35:46.713Z,90.76
2018-11-22T19:38:16.278Z,90.48
2018-11-22T19:40:45.621Z,90.60
2018-11-22T19:43:15.013Z,90.37
2018-11-22T19:45:46.235Z,90.71
2018-11-22T19:48:15.630Z,90.64
2018-11-22T19:50:50.083Z,90.66
2018-11-22T19:53:20.244Z,90.69
2018-11-22T19:55:49.616Z,90.58
2018-11-22T19:58:24.888Z,91.64
2018-11-22T20:00:55.484Z,90.79
2018-11-22T20:03:24.789Z,91.29
2018-11-22T20:05:54.204Z,91.03
2018-11-22T20:08:29.725Z,90.95
2018-11-22T20:10:59.063Z,91.16
2018-11-22T20:14:04.752Z,91.69
2018-11-22T20:16:37.032Z,91.43
2018-11-22T20:19:07.166Z,91.27
2018-11-22T20:21:37.966Z,91.14
2018-11-22T20:24:08.357Z,92.08
2018-11-22T20:26:37.693Z,91.97
2018-11-22T20:29:07.068Z,91.04
2018-11-22T20:31:37.799Z,91.38
2018-11-22T20:34:08.249Z,91.19
2018-11-22T20:36:37.451Z,91.94
2018-11-22T20:39:11.973Z,92.30
2018-11-22T20:41:42.298Z,91.69
2018-11-22T20:44:11.535Z,91.48
2018-11-22T20:46:40.932Z,91.67
2018-11-22T20:49:10.435Z,91.16
2018-11-22T20:51:39.822Z,91.86
2018-11-22T20:54:09.216Z,91.74
2018-11-22T20:56:38.903Z,91.94
2018-11-22T20:59:08.536Z,91.99
2018-11-22T21:01:38.783Z,91.68
2018-11-22T21:04:08.231Z,91.80
2018-11-22T21:06:38.035Z,92.35
2018-11-22T21:09:09.026Z,92.29
2018-11-22T21:11:43.393Z,92.04
2018-11-22T21:14:08.735Z,92.00
2018-11-22T21:16:38.933Z,92.59
2018-11-22T21:19:08.666Z,91.69
2018-11-22T21:21:37.898Z,92.38
2018-11-22T21:24:16.708Z,92.44
2018-11-22T21:26:59.281Z,92.00
2018-11-22T21:29:33.879Z,91.86
2018-11-22T21:32:03.240Z,92.20
2018-11-22T21:34:32.651Z,92.17
2018-11-22T21:37:04.450Z,92.92
2018-11-22T21:39:33.770Z,92.83
2018-11-22T21:42:03.053Z,93.06
2018-11-22T21:44:32.497Z,92.31
2018-11-22T21:47:02.078Z,92.64
2018-11-22T21:49:35.588Z,92.21
2018-11-22T21:52:07.808Z,92.27
2018-11-22T21:54:38.167Z,92.93
2018-11-22T21:57:07.600Z,92.40
2018-11-22T21:59:36.965Z,92.62
2018-11-22T22:02:06.443Z,92.66
2018-11-22T22:04:35.802Z,92.35
2018-11-22T22:07:05.266Z,92.61
2018-11-22T22:09:34.506Z,92.06
2018-11-22T22:12:04.193Z,91.99
2018-11-22T22:14:33.425Z,91.91
2018-11-22T22:17:11.802Z,92.26
2018-11-22T22:19:41.150Z,91.86
2018-11-22T22:22:10.484Z,92.73
2018-11-22T22:24:39.893Z,92.35
2018-11-22T22:27:11.560Z,92.62
2018-11-22T22:29:41.542Z,92.16
2018-11-22T22:32:10.790Z,92.78
2018-11-22T22:34:40.255Z,92.01
2018-11-22T22:37:17.100Z,92.19
2018-11-22T22:39:47.802Z,92.11
2018-11-22T22:42:17.662Z,92.43
2018-11-22T22:44:49.476Z,91.93
2018-11-22T22:47:18.829Z,91.93
2018-11-22T22:49:48.386Z,91.98
2018-11-22T22:52:17.686Z,91.77
2018-11-22T22:54:50.815Z,92.41
2018-11-22T22:57:20.327Z,91.91
2018-11-22T22:59:49.993Z,91.80
2018-11-22T23:02:19.257Z,91.81
2018-11-22T23:04:48.597Z,91.24
2018-11-22T23:07:17.848Z,92.05
2018-11-22T23:09:47.235Z,91.54
2018-11-22T23:12:16.556Z,91.65
2018-11-22T23:14:45.899Z,91.31
2018-11-22T23:17:15.180Z,92.21
2018-11-22T23:19:44.777Z,91.92
2018-11-22T23:22:14.334Z,91.89
2018-11-22T23:24:43.649Z,92.11
2018-11-22T23:27:14.445Z,91.71
2018-11-22T23:29:43.850Z,92.39
2018-11-22T23:32:14.211Z,92.17
2018-11-22T23:34:43.630Z,91.83
2018-11-22T23:37:13.053Z,92.14
2018-11-22T23:39:42.271Z,92.27
2018-11-22T23:42:12.503Z,92.25
2018-11-22T23:44:41.866Z,92.01
2018-11-22T23:47:11.163Z,91.77
2018-11-22T23:49:40.870Z,91.70
2018-11-22T23:52:10.425Z,91.99
2018-11-22T23:54:39.790Z,91.77
2018-11-22T23:57:09.289Z,92.53
2018-11-22T23:59:39.245Z,92.08
